createdAt,value
2023-05-19T00:00:14.951Z,899.84
2023-05-19T00:01:15.858Z,900.00
2023-05-19T00:02:14.931Z,899.86
2023-05-19T00:03:15.380Z,898.97
2023-05-19T00:04:15.013Z,896.15
2023-05-19T00:05:14.830Z,894.56
2023-05-19T00:06:15.783Z,894.87
2023-05-19T00:07:15.196Z,895.41
2023-05-19T00:08:14.744Z,894.60
2023-05-19T00:09:15.289Z,895.36
2023-05-19T00:10:14.985Z,896.96
2023-05-19T00:11:16.213Z,897.66
2023-05-19T00:12:15.329Z,895.88
2023-05-19T00:13:14.889Z,896.01
2023-05-19T00:14:14.882Z,896.40
2023-05-19T00:15:14.830Z,896.22
2023-05-19T00:16:15.169Z,896.35
2023-05-19T00:17:14.998Z,897.76
2023-05-19T00:18:14.856Z,898.85
2023-05-19T00:19:14.693Z,900.33
2023-05-19T00:20:14.730Z,900.39
2023-05-19T00:21:15.107Z,899.77
2023-05-19T00:22:14.431Z,900.49
2023-05-19T00:23:14.787Z,901.48
2023-05-19T00:24:14.414Z,902.18
2023-05-19T00:25:15.415Z,903.19
2023-05-19T00:26:15.011Z,904.05
2023-05-19T00:27:15.211Z,905.24
2023-05-19T00:28:14.583Z,905.79
2023-05-19T00:29:14.704Z,906.64
2023-05-19T00:30:14.870Z,907.86
2023-05-19T00:31:14.632Z,908.88
2023-05-19T00:32:14.728Z,909.20
2023-05-19T00:33:14.462Z,909.56
2023-05-19T00:34:14.549Z,910.33
2023-05-19T00:35:15.037Z,911.00
2023-05-19T00:36:14.676Z,909.85
2023-05-19T00:37:14.588Z,910.87
2023-05-19T00:38:24.774Z,913.40
2023-05-19T00:39:14.864Z,914.72
2023-05-19T00:40:14.839Z,915.33
2023-05-19T00:41:24.155Z,915.99
2023-05-19T00:42:14.520Z,916.70
2023-05-19T00:43:16.099Z,916.61
2023-05-19T00:44:14.662Z,916.92
2023-05-19T00:45:14.366Z,915.26
2023-05-19T00:46:14.490Z,916.01
2023-05-19T00:47:14.242Z,917.47
2023-05-19T00:48:14.451Z,917.46
2023-05-19T00:49:14.630Z,915.80
2023-05-19T00:50:18.033Z,915.25
2023-05-19T00:51:14.404Z,915.86
2023-05-19T00:52:14.373Z,916.39
2023-05-19T00:53:14.681Z,917.89
2023-05-19T00:54:14.442Z,919.00
2023-05-19T00:55:14.171Z,917.75
2023-05-19T00:56:13.206Z,917.96
2023-05-19T00:57:13.194Z,918.10
2023-05-19T00:58:13.201Z,918.33
2023-05-19T00:59:13.185Z,918.97
2023-05-19T01:00:13.171Z,920.65
2023-05-19T01:01:13.198Z,922.64
2023-05-19T01:02:13.189Z,923.91
2023-05-19T01:03:13.394Z,925.21
2023-05-19T01:04:13.111Z,926.01
2023-05-19T01:05:13.125Z,928.01
2023-05-19T01:06:13.103Z,928.05
2023-05-19T01:07:13.084Z,926.92
2023-05-19T01:08:13.087Z,926.48
2023-05-19T01:09:13.044Z,926.42
2023-05-19T01:10:13.102Z,927.50
2023-05-19T01:11:13.281Z,928.14
2023-05-19T01:12:13.076Z,929.40
2023-05-19T01:13:13.013Z,931.14
2023-05-19T01:14:12.988Z,932.18
2023-05-19T01:15:12.964Z,933.07
2023-05-19T01:16:13.128Z,934.49
2023-05-19T01:17:12.952Z,935.52
2023-05-19T01:18:12.990Z,936.44
2023-05-19T01:19:12.975Z,936.04
2023-05-19T01:20:12.939Z,936.72
2023-05-19T01:21:12.930Z,937.00
2023-05-19T01:22:12.940Z,937.62
2023-05-19T01:23:12.898Z,938.81
2023-05-19T01:24:12.894Z,940.74
2023-05-19T01:25:12.851Z,942.16
2023-05-19T01:26:12.859Z,942.95
2023-05-19T01:27:12.838Z,943.41
2023-05-19T01:28:12.828Z,943.99
2023-05-19T01:29:12.821Z,944.74
2023-05-19T01:30:12.808Z,945.56
2023-05-19T01:31:12.814Z,946.38
2023-05-19T01:32:12.835Z,947.36
2023-05-19T01:33:12.784Z,949.04
2023-05-19T01:34:12.750Z,951.65
2023-05-19T01:35:12.755Z,952.89
2023-05-19T01:36:12.732Z,952.97
2023-05-19T01:37:12.711Z,953.33
2023-05-19T01:38:12.758Z,953.52
2023-05-19T01:39:12.706Z,953.57
2023-05-19T01:40:15.412Z,953.96
2023-05-19T01:41:12.686Z,954.86
2023-05-19T01:42:12.706Z,955.13
2023-05-19T01:43:12.692Z,956.03
2023-05-19T01:44:12.696Z,957.16
2023-05-19T01:45:12.636Z,958.62
2023-05-19T01:46:12.632Z,959.57
2023-05-19T01:47:12.623Z,961.04
2023-05-19T01:48:12.603Z,961.68
2023-05-19T01:49:12.662Z,961.80
2023-05-19T01:50:12.559Z,962.18
2023-05-19T01:51:12.565Z,963.33
2023-05-19T01:52:12.553Z,964.72
2023-05-19T01:53:12.572Z,966.39
2023-05-19T01:54:12.581Z,967.00
2023-05-19T01:55:12.508Z,967.76
2023-05-19T01:56:12.501Z,967.58
2023-05-19T01:57:12.495Z,967.63
2023-05-19T01:58:12.520Z,967.49
2023-05-19T01:59:12.512Z,967.83
2023-05-19T02:00:12.453Z,968.92
2023-05-19T02:01:12.517Z,969.37
2023-05-19T02:02:12.446Z,970.24
2023-05-19T02:03:12.454Z,970.62
2023-05-19T02:04:12.500Z,971.99
2023-05-19T02:05:12.412Z,973.01
2023-05-19T02:06:12.402Z,973.71
2023-05-19T02:07:12.389Z,974.20
2023-05-19T02:08:12.380Z,974.29
2023-05-19T02:09:12.365Z,974.79
2023-05-19T02:10:12.350Z,975.15
2023-05-19T02:11:12.348Z,975.90
2023-05-19T02:12:12.335Z,976.49
2023-05-19T02:13:12.304Z,976.76
2023-05-19T02:14:12.296Z,976.12
2023-05-19T02:15:12.308Z,976.50
2023-05-19T02:16:12.329Z,976.55
2023-05-19T02:17:12.283Z,977.62
2023-05-19T02:18:12.285Z,979.32
2023-05-19T02:19:12.249Z,980.16
2023-05-19T02:20:12.223Z,980.78
2023-05-19T02:21:12.249Z,982.58
2023-05-19T02:22:12.221Z,983.87
2023-05-19T02:23:12.203Z,986.01
2023-05-19T02:24:12.201Z,987.03
2023-05-19T02:25:12.167Z,987.98
2023-05-19T02:26:12.165Z,988.77
2023-05-19T02:27:12.148Z,988.61
2023-05-19T02:28:12.392Z,988.62
2023-05-19T02:29:12.140Z,989.02
2023-05-19T02:30:12.114Z,990.33
2023-05-19T02:31:12.103Z,991.22
2023-05-19T02:32:12.118Z,991.95
2023-05-19T02:33:12.120Z,991.94
2023-05-19T02:34:12.073Z,991.98
2023-05-19T02:35:12.055Z,993.03
2023-05-19T02:36:12.033Z,993.91
2023-05-19T02:37:12.425Z,993.94
2023-05-19T02:38:12.019Z,994.52
2023-05-19T02:39:12.043Z,995.37
2023-05-19T02:40:12.018Z,996.15
2023-05-19T02:41:11.976Z,997.17
2023-05-19T02:42:12.005Z,998.21
2023-05-19T02:43:11.985Z,998.38
2023-05-19T02:44:11.949Z,998.48
2023-05-19T02:45:12.056Z,998.75
2023-05-19T02:46:11.951Z,998.87
2023-05-19T02:47:12.007Z,998.79
2023-05-19T02:48:11.983Z,999.23
2023-05-19T02:49:11.908Z,1000.02
2023-05-19T02:50:11.907Z,1000.67
2023-05-19T02:51:11.878Z,1001.79
2023-05-19T02:52:11.861Z,1002.88
2023-05-19T02:53:11.851Z,1003.88
2023-05-19T02:54:11.960Z,1003.11
2023-05-19T02:55:11.833Z,1004.68
2023-05-19T02:56:11.827Z,1006.13
2023-05-19T02:57:11.790Z,1007.00
2023-05-19T02:58:11.808Z,1007.19
2023-05-19T02:59:11.800Z,1007.87
2023-05-19T03:00:11.776Z,1008.53
2023-05-19T03:01:11.765Z,1009.13
2023-05-19T03:02:11.914Z,1009.48
2023-05-19T03:03:11.816Z,1009.99
2023-05-19T03:04:11.747Z,1010.75
2023-05-19T03:05:11.724Z,1011.24
2023-05-19T03:06:14.504Z,1011.98
2023-05-19T03:07:11.671Z,1012.54
2023-05-19T03:08:11.691Z,1012.66
2023-05-19T03:09:11.682Z,1013.57
2023-05-19T03:10:11.663Z,1013.27
2023-05-19T03:11:11.655Z,1013.07
2023-05-19T03:12:11.643Z,1013.13
2023-05-19T03:13:11.646Z,1012.54
2023-05-19T03:14:11.666Z,1012.53
2023-05-19T03:15:11.604Z,1012.73
2023-05-19T03:16:11.655Z,1013.08
2023-05-19T03:17:11.633Z,1013.27
2023-05-19T03:18:11.628Z,1013.87
2023-05-19T03:19:11.642Z,1013.85
2023-05-19T03:20:11.544Z,1014.86
2023-05-19T03:21:11.551Z,1015.86
2023-05-19T03:22:11.528Z,1016.08
2023-05-19T03:23:11.547Z,1015.99
2023-05-19T03:24:11.496Z,1015.89
2023-05-19T03:25:11.504Z,1016.35
2023-05-19T03:26:11.520Z,1016.65
2023-05-19T03:27:11.480Z,1016.83
2023-05-19T03:28:11.451Z,1016.99
2023-05-19T03:29:11.496Z,1016.92
2023-05-19T03:30:11.456Z,1017.45
2023-05-19T03:31:11.450Z,1017.84
2023-05-19T03:32:11.445Z,1018.06
2023-05-19T03:33:11.542Z,1018.92
2023-05-19T03:34:11.379Z,1020.22
2023-05-19T03:35:11.391Z,1020.70
2023-05-19T03:36:11.384Z,1020.93
2023-05-19T03:37:11.700Z,1021.10
2023-05-19T03:38:11.352Z,1020.86
2023-05-19T03:39:11.334Z,1020.99
2023-05-19T03:40:11.346Z,1021.35
2023-05-19T03:41:11.297Z,1022.05
2023-05-19T03:42:11.314Z,1022.16
2023-05-19T03:43:11.310Z,1021.99
2023-05-19T03:44:11.284Z,1022.11
2023-05-19T03:45:11.275Z,1022.50
2023-05-19T03:46:11.279Z,1023.00
2023-05-19T03:47:11.272Z,1022.89
2023-05-19T03:48:11.242Z,1022.68
2023-05-19T03:49:11.227Z,1022.99
2023-05-19T03:50:11.237Z,1023.23
2023-05-19T03:51:11.552Z,1023.47
2023-05-19T03:52:11.200Z,1023.17
2023-05-19T03:53:11.159Z,1023.32
2023-05-19T03:54:11.160Z,1023.52
2023-05-19T03:55:11.179Z,1023.93
2023-05-19T03:56:11.145Z,1024.33
2023-05-19T03:57:11.185Z,1024.75
2023-05-19T03:58:11.142Z,1025.30
2023-05-19T03:59:11.133Z,1025.37
2023-05-19T04:00:11.242Z,1025.75
2023-05-19T04:01:11.070Z,1026.02
2023-05-19T04:02:11.169Z,1026.23
2023-05-19T04:03:11.247Z,1026.23
2023-05-19T04:04:11.079Z,1026.38
2023-05-19T04:05:11.354Z,1026.55
2023-05-19T04:06:11.046Z,1027.24
2023-05-19T04:07:11.021Z,1027.61
2023-05-19T04:08:11.051Z,1028.04
2023-05-19T04:09:11.321Z,1028.23
2023-05-19T04:10:11.313Z,1028.27
2023-05-19T04:11:11.012Z,1028.23
2023-05-19T04:12:10.959Z,1028.06
2023-05-19T04:13:11.028Z,1027.72
2023-05-19T04:14:10.937Z,1027.57
2023-05-19T04:15:10.924Z,1027.33
2023-05-19T04:16:11.240Z,1027.24
2023-05-19T04:17:10.889Z,1026.91
2023-05-19T04:18:10.926Z,1026.98
2023-05-19T04:19:18.031Z,1026.90
2023-05-19T04:20:18.204Z,1026.80
2023-05-19T04:21:17.860Z,1026.75
2023-05-19T04:22:10.840Z,1026.55
2023-05-19T04:23:18.154Z,1026.43
2023-05-19T04:24:11.101Z,1026.37
2023-05-19T04:25:10.817Z,1026.31
2023-05-19T04:26:10.812Z,1026.16
2023-05-19T04:27:10.794Z,1026.17
2023-05-19T04:28:10.787Z,1026.12
2023-05-19T04:29:10.780Z,1026.07
2023-05-19T04:30:10.758Z,1025.56
2023-05-19T04:31:10.849Z,1024.96
2023-05-19T04:32:10.753Z,1024.85
2023-05-19T04:33:10.744Z,1024.54
2023-05-19T04:34:10.696Z,1024.42
2023-05-19T04:35:10.692Z,1024.44
2023-05-19T04:36:10.788Z,1024.02
2023-05-19T04:37:10.980Z,1023.71
2023-05-19T04:38:11.187Z,1023.53
2023-05-19T04:39:10.658Z,1023.18
2023-05-19T04:40:10.652Z,1023.02
2023-05-19T04:41:10.713Z,1022.69
2023-05-19T04:42:10.616Z,1022.34
2023-05-19T04:43:10.599Z,1021.91
2023-05-19T04:44:10.579Z,1021.62
2023-05-19T04:45:10.578Z,1021.13
2023-05-19T04:46:13.169Z,1020.77
2023-05-19T04:47:10.884Z,1020.89
2023-05-19T04:48:10.560Z,1021.01
2023-05-19T04:49:10.579Z,1021.00
2023-05-19T04:50:10.578Z,1020.95
2023-05-19T04:51:10.587Z,1020.40
2023-05-19T04:52:10.823Z,1020.25
2023-05-19T04:53:12.396Z,1020.10
2023-05-19T04:54:10.495Z,1020.03
2023-05-19T04:55:10.505Z,1020.19
2023-05-19T04:56:10.441Z,1019.96
2023-05-19T04:57:10.494Z,1019.47
2023-05-19T04:58:10.421Z,1019.32
2023-05-19T04:59:10.415Z,1018.94
2023-05-19T05:00:10.782Z,1018.26
2023-05-19T05:01:10.404Z,1017.87
2023-05-19T05:02:10.581Z,1017.36
2023-05-19T05:03:10.481Z,1017.28
2023-05-19T05:04:10.492Z,1016.95
2023-05-19T05:05:10.371Z,1016.20
2023-05-19T05:06:10.390Z,1015.67
2023-05-19T05:07:10.341Z,1015.46
2023-05-19T05:08:10.344Z,1015.24
2023-05-19T05:09:10.333Z,1014.94
2023-05-19T05:10:10.673Z,1014.93
2023-05-19T05:11:10.287Z,1014.47
2023-05-19T05:12:10.284Z,1014.38
2023-05-19T05:13:11.802Z,1013.90
2023-05-19T05:14:10.263Z,1013.75
2023-05-19T05:15:10.240Z,1013.40
2023-05-19T05:16:10.260Z,1012.95
2023-05-19T05:17:10.552Z,1012.22
2023-05-19T05:18:10.320Z,1011.86
2023-05-19T05:19:10.229Z,1011.91
2023-05-19T05:20:10.175Z,1011.61
2023-05-19T05:21:10.180Z,1011.47
2023-05-19T05:22:10.183Z,1011.32
2023-05-19T05:23:10.156Z,1010.80
2023-05-19T05:24:10.136Z,1010.02
2023-05-19T05:25:10.162Z,1009.57
2023-05-19T05:26:10.132Z,1009.20
2023-05-19T05:27:10.258Z,1008.93
2023-05-19T05:28:10.104Z,1008.49
2023-05-19T05:29:10.101Z,1007.92
2023-05-19T05:30:10.080Z,1007.61
2023-05-19T05:31:12.226Z,1006.71
2023-05-19T05:32:13.102Z,1006.04
2023-05-19T05:33:10.541Z,1005.46
2023-05-19T05:34:10.941Z,1005.08
2023-05-19T05:35:10.047Z,1004.68
2023-05-19T05:36:10.039Z,1004.36
2023-05-19T05:37:10.132Z,1003.94
2023-05-19T05:38:10.309Z,1004.57
2023-05-19T05:39:09.960Z,1004.48
2023-05-19T05:40:12.092Z,1003.87
2023-05-19T05:41:10.880Z,1003.32
2023-05-19T05:42:09.950Z,1003.26
2023-05-19T05:43:10.235Z,1002.74
2023-05-19T05:44:09.912Z,1002.25
2023-05-19T05:45:09.882Z,1001.78
2023-05-19T05:46:09.969Z,1001.22
2023-05-19T05:47:09.874Z,1000.80
2023-05-19T05:48:09.904Z,1001.95
2023-05-19T05:49:09.867Z,1002.25
2023-05-19T05:50:10.120Z,1001.94
2023-05-19T05:51:09.853Z,1000.89
2023-05-19T05:52:09.874Z,1001.23
2023-05-19T05:53:10.111Z,1000.59
2023-05-19T05:54:09.830Z,999.60
2023-05-19T05:55:09.820Z,998.53
2023-05-19T05:56:09.760Z,997.34
2023-05-19T05:57:09.786Z,996.57
2023-05-19T05:58:09.763Z,996.10
2023-05-19T05:59:09.852Z,995.28
2023-05-19T06:00:09.742Z,994.95
2023-05-19T06:01:09.718Z,994.35
2023-05-19T06:02:09.778Z,994.64
2023-05-19T06:03:10.035Z,994.28
2023-05-19T06:04:09.678Z,993.56
2023-05-19T06:05:09.749Z,992.46
2023-05-19T06:06:09.672Z,991.28
2023-05-19T06:07:09.671Z,989.89
2023-05-19T06:08:10.826Z,990.89
2023-05-19T06:09:09.627Z,989.90
2023-05-19T06:10:09.654Z,988.92
2023-05-19T06:11:09.592Z,988.79
2023-05-19T06:12:16.951Z,987.62
2023-05-19T06:13:16.923Z,986.32
2023-05-19T06:14:09.561Z,985.41
2023-05-19T06:15:16.870Z,984.58
2023-05-19T06:16:09.616Z,983.54
2023-05-19T06:17:09.520Z,982.76
2023-05-19T06:18:09.742Z,982.64
2023-05-19T06:19:09.555Z,981.70
2023-05-19T06:20:09.518Z,979.99
2023-05-19T06:21:09.469Z,978.56
2023-05-19T06:22:09.746Z,977.78
2023-05-19T06:23:09.465Z,978.82
2023-05-19T06:24:09.455Z,977.70
2023-05-19T06:25:09.444Z,976.64
2023-05-19T06:26:09.440Z,976.44
2023-05-19T06:27:09.406Z,975.67
2023-05-19T06:28:09.427Z,975.67
2023-05-19T06:29:09.373Z,975.33
2023-05-19T06:30:09.427Z,974.04
2023-05-19T06:31:09.402Z,972.60
2023-05-19T06:32:09.345Z,970.79
2023-05-19T06:33:09.745Z,971.95
2023-05-19T06:34:09.319Z,970.54
2023-05-19T06:35:09.322Z,970.63
2023-05-19T06:36:09.713Z,969.75
2023-05-19T06:37:09.315Z,969.12
2023-05-19T06:38:09.284Z,967.64
2023-05-19T06:39:09.252Z,967.46
2023-05-19T06:40:09.252Z,965.76
2023-05-19T06:41:09.239Z,964.87
2023-05-19T06:42:09.264Z,963.73
2023-05-19T06:43:09.224Z,963.66
2023-05-19T06:44:09.212Z,963.91
2023-05-19T06:45:09.263Z,963.63
2023-05-19T06:46:09.189Z,962.92
2023-05-19T06:47:09.229Z,961.66
2023-05-19T06:48:09.216Z,961.80
2023-05-19T06:49:09.162Z,959.90
2023-05-19T06:50:09.139Z,958.85
2023-05-19T06:51:09.124Z,958.22
2023-05-19T06:52:09.126Z,956.95
2023-05-19T06:53:09.134Z,958.46
2023-05-19T06:54:09.118Z,957.35
2023-05-19T06:55:11.816Z,957.30
2023-05-19T06:56:09.087Z,955.70
2023-05-19T06:57:09.046Z,955.11
2023-05-19T06:58:09.058Z,955.60
2023-05-19T06:59:09.036Z,954.22
2023-05-19T07:00:09.035Z,951.87
2023-05-19T07:01:09.059Z,949.99
2023-05-19T07:02:09.377Z,949.20
2023-05-19T07:03:11.841Z,946.75
2023-05-19T07:04:09.097Z,945.74
2023-05-19T07:05:09.352Z,945.12
2023-05-19T07:06:08.978Z,944.49
2023-05-19T07:07:08.928Z,943.36
2023-05-19T07:08:08.918Z,943.01
2023-05-19T07:09:08.940Z,939.59
2023-05-19T07:10:08.919Z,937.76
2023-05-19T07:11:08.934Z,936.51
2023-05-19T07:12:08.880Z,934.77
2023-05-19T07:13:08.877Z,934.12
2023-05-19T07:14:08.916Z,937.63
2023-05-19T07:15:08.905Z,939.88
2023-05-19T07:16:08.870Z,941.55
2023-05-19T07:17:08.843Z,940.59
2023-05-19T07:18:08.857Z,940.28
2023-05-19T07:19:10.635Z,939.92
2023-05-19T07:20:08.794Z,939.07
2023-05-19T07:21:08.771Z,938.14
2023-05-19T07:22:08.795Z,937.39
2023-05-19T07:23:08.759Z,936.46
2023-05-19T07:24:08.762Z,934.23
2023-05-19T07:25:09.093Z,932.62
2023-05-19T07:26:08.715Z,930.27
2023-05-19T07:27:08.716Z,927.39
2023-05-19T07:28:08.720Z,932.68
2023-05-19T07:29:08.724Z,934.54
2023-05-19T07:30:08.700Z,936.00
2023-05-19T07:31:08.670Z,938.30
2023-05-19T07:32:08.697Z,939.64
2023-05-19T07:33:08.707Z,940.59
2023-05-19T07:34:08.700Z,937.65
2023-05-19T07:35:08.654Z,936.35
2023-05-19T07:36:08.624Z,930.82
2023-05-19T07:37:08.598Z,929.38
2023-05-19T07:38:08.606Z,926.87
2023-05-19T07:39:08.620Z,924.72
2023-05-19T07:40:08.574Z,923.02
2023-05-19T07:41:08.626Z,921.12
2023-05-19T07:42:08.586Z,923.22
2023-05-19T07:43:08.619Z,924.91
2023-05-19T07:44:08.553Z,925.75
2023-05-19T07:45:08.502Z,925.24
2023-05-19T07:46:08.536Z,924.84
2023-05-19T07:47:08.533Z,924.74
2023-05-19T07:48:08.563Z,925.54
2023-05-19T07:49:08.490Z,924.81
2023-05-19T07:50:08.466Z,922.37
2023-05-19T07:51:08.453Z,919.90
2023-05-19T07:52:08.755Z,918.01
2023-05-19T07:53:08.422Z,917.97
2023-05-19T07:54:08.421Z,917.28
2023-05-19T07:55:08.445Z,919.39
2023-05-19T07:56:08.395Z,920.73
2023-05-19T07:57:08.401Z,917.96
2023-05-19T07:58:11.204Z,915.55
2023-05-19T07:59:08.362Z,913.22
2023-05-19T08:00:08.355Z,912.23
2023-05-19T08:01:08.327Z,921.70
2023-05-19T08:02:08.344Z,904.49
2023-05-19T08:03:08.409Z,900.96
2023-05-19T08:04:10.289Z,897.82
2023-05-19T08:05:16.625Z,895.81
2023-05-19T08:06:15.317Z,894.03
2023-05-19T08:07:08.279Z,891.30
2023-05-19T08:08:08.236Z,893.72
2023-05-19T08:09:08.235Z,899.05
2023-05-19T08:10:08.237Z,899.61
2023-05-19T08:11:08.208Z,899.57
2023-05-19T08:12:08.220Z,897.81
2023-05-19T08:13:08.590Z,897.59
2023-05-19T08:14:08.193Z,896.27
2023-05-19T08:15:08.194Z,896.29
2023-05-19T08:16:08.151Z,896.10
2023-05-19T08:17:08.195Z,894.47
2023-05-19T08:18:08.137Z,895.57
2023-05-19T08:19:08.153Z,894.85
2023-05-19T08:20:08.187Z,894.69
2023-05-19T08:21:08.112Z,894.90
2023-05-19T08:22:08.112Z,892.26
2023-05-19T08:23:08.077Z,890.59
2023-05-19T08:24:08.129Z,887.60
2023-05-19T08:25:08.050Z,887.65
2023-05-19T08:26:08.046Z,886.04
2023-05-19T08:27:08.024Z,886.33
2023-05-19T08:28:08.022Z,886.26
2023-05-19T08:29:08.005Z,886.24
2023-05-19T08:30:08.024Z,890.27
2023-05-19T08:31:07.994Z,892.68
2023-05-19T08:32:11.615Z,895.06
2023-05-19T08:33:08.002Z,896.08
2023-05-19T08:34:07.990Z,895.81
2023-05-19T08:35:07.927Z,896.62
2023-05-19T08:36:09.664Z,891.72
2023-05-19T08:37:07.898Z,894.78
2023-05-19T08:38:07.904Z,888.03
2023-05-19T08:39:07.889Z,879.31
2023-05-19T08:40:07.947Z,879.53
2023-05-19T08:41:07.891Z,873.45
2023-05-19T08:42:07.876Z,878.34
2023-05-19T08:43:07.839Z,880.15
2023-05-19T08:44:07.843Z,878.18
2023-05-19T08:45:07.882Z,884.81
2023-05-19T08:46:07.813Z,885.17
2023-05-19T08:47:07.992Z,888.29
2023-05-19T08:48:07.826Z,892.25
2023-05-19T08:49:07.786Z,890.47
2023-05-19T08:50:07.871Z,892.01
2023-05-19T08:51:07.791Z,883.17
2023-05-19T08:52:07.754Z,863.40
2023-05-19T08:53:15.101Z,867.07
2023-05-19T08:54:08.735Z,869.58
2023-05-19T08:55:07.728Z,873.89
2023-05-19T08:56:07.719Z,875.42
2023-05-19T08:57:07.733Z,874.98
2023-05-19T08:58:07.700Z,877.53
2023-05-19T08:59:11.592Z,877.26
2023-05-19T09:00:07.641Z,875.89
2023-05-19T09:01:07.729Z,873.81
2023-05-19T09:02:07.694Z,872.19
2023-05-19T09:04:07.713Z,854.12
2023-05-19T09:05:07.650Z,847.65
2023-05-19T09:06:07.728Z,817.82
2023-05-19T09:07:07.640Z,828.18
2023-05-19T09:08:07.528Z,834.46
2023-05-19T09:09:07.613Z,852.24
2023-05-19T09:10:07.509Z,877.58
2023-05-19T09:11:07.583Z,870.84
2023-05-19T09:12:07.516Z,850.74
2023-05-19T09:13:07.499Z,856.40
2023-05-19T09:14:07.484Z,849.47
2023-05-19T09:15:07.821Z,879.03
2023-05-19T09:16:07.498Z,841.46
2023-05-19T09:17:07.613Z,825.65
2023-05-19T09:18:07.748Z,856.99
2023-05-19T09:19:07.428Z,845.09
2023-05-19T09:20:07.496Z,853.60
2023-05-19T09:21:07.598Z,825.96
2023-05-19T09:22:07.462Z,860.51
2023-05-19T09:23:07.406Z,879.08
2023-05-19T09:24:07.379Z,840.26
2023-05-19T09:25:07.649Z,875.88
2023-05-19T09:26:07.888Z,866.83
2023-05-19T09:27:07.411Z,874.40
2023-05-19T09:28:07.368Z,862.90
2023-05-19T09:29:07.335Z,884.33
2023-05-19T09:30:07.307Z,859.26
2023-05-19T09:31:07.342Z,874.36
2023-05-19T09:32:09.068Z,885.29
2023-05-19T09:33:07.336Z,873.92
2023-05-19T09:34:07.279Z,882.95
2023-05-19T09:35:07.301Z,876.52
2023-05-19T09:36:07.234Z,853.62
2023-05-19T09:37:07.220Z,853.74
2023-05-19T09:38:07.236Z,855.88
2023-05-19T09:39:07.191Z,879.02
2023-05-19T09:40:07.229Z,883.71
2023-05-19T09:41:07.233Z,890.71
2023-05-19T09:42:07.495Z,889.00
2023-05-19T09:43:07.182Z,890.86
2023-05-19T09:44:07.165Z,896.26
2023-05-19T09:45:07.134Z,899.86
2023-05-19T09:46:07.310Z,903.20
2023-05-19T09:47:07.124Z,907.54
2023-05-19T09:48:07.116Z,900.68
2023-05-19T09:49:07.117Z,900.94
2023-05-19T09:50:07.083Z,903.50
2023-05-19T09:51:07.410Z,749.72
2023-05-19T09:52:07.098Z,905.42
2023-05-19T09:53:07.060Z,910.45
2023-05-19T09:54:07.020Z,913.13
2023-05-19T09:55:06.994Z,794.55
2023-05-19T09:56:07.012Z,703.05
2023-05-19T09:57:08.348Z,750.81
2023-05-19T09:58:14.026Z,715.09
2023-05-19T09:59:13.980Z,720.47
2023-05-19T10:00:07.015Z,755.55
2023-05-19T10:01:07.045Z,726.97
2023-05-19T10:02:06.964Z,729.95
2023-05-19T10:03:07.017Z,975.96
2023-05-19T10:04:06.905Z,964.75
2023-05-19T10:05:11.935Z,967.46
2023-05-19T10:06:07.879Z,962.18
2023-05-19T10:07:07.009Z,962.05
2023-05-19T10:08:06.862Z,960.84
2023-05-19T10:09:06.848Z,950.09
2023-05-19T10:10:07.188Z,930.12
2023-05-19T10:11:06.819Z,782.61
2023-05-19T10:12:06.862Z,725.13
2023-05-19T10:13:06.808Z,937.89
2023-05-19T10:14:06.801Z,965.12
2023-05-19T10:15:06.794Z,968.02
2023-05-19T10:16:06.824Z,966.33
2023-05-19T10:17:07.258Z,962.63
2023-05-19T10:18:07.178Z,958.81
2023-05-19T10:19:06.844Z,952.14
2023-05-19T10:20:06.714Z,697.49
2023-05-19T10:21:06.720Z,708.07
2023-05-19T10:22:06.691Z,838.04
2023-05-19T10:23:06.722Z,756.79
2023-05-19T10:24:06.681Z,951.48
2023-05-19T10:25:06.693Z,946.64
2023-05-19T10:26:07.059Z,941.08
2023-05-19T10:27:06.643Z,939.19
2023-05-19T10:28:06.657Z,700.80
2023-05-19T10:29:06.660Z,963.51
2023-05-19T10:30:08.254Z,917.06
2023-05-19T10:31:06.630Z,701.94
2023-05-19T10:32:06.661Z,702.24
2023-05-19T10:33:06.616Z,702.06
2023-05-19T10:34:07.366Z,700.09
2023-05-19T10:35:06.591Z,700.32
2023-05-19T10:36:06.561Z,702.52
2023-05-19T10:37:06.701Z,710.46
2023-05-19T10:38:06.513Z,974.71
2023-05-19T10:39:06.510Z,975.88
2023-05-19T10:40:08.461Z,974.75
2023-05-19T10:41:06.471Z,976.61
2023-05-19T10:42:06.470Z,974.50
2023-05-19T10:43:06.464Z,972.34
2023-05-19T10:44:06.435Z,971.72
2023-05-19T10:45:06.454Z,970.13
2023-05-19T10:46:06.408Z,970.18
2023-05-19T10:47:06.446Z,969.41
2023-05-19T10:48:06.416Z,969.00
2023-05-19T10:49:06.500Z,968.05
2023-05-19T10:50:06.388Z,965.81
2023-05-19T10:51:08.585Z,964.78
2023-05-19T10:52:06.587Z,956.56
2023-05-19T10:53:06.362Z,947.15
2023-05-19T10:54:06.394Z,936.93
2023-05-19T10:55:08.197Z,944.31
2023-05-19T10:56:06.320Z,735.51
2023-05-19T10:57:06.297Z,680.84
2023-05-19T10:58:06.296Z,710.26
2023-05-19T10:59:06.281Z,902.80
2023-05-19T11:00:06.257Z,968.58
2023-05-19T11:01:06.259Z,873.52
2023-05-19T11:02:06.248Z,956.72
2023-05-19T11:03:06.284Z,799.11
2023-05-19T11:04:06.235Z,951.73
2023-05-19T11:05:06.215Z,729.36
2023-05-19T11:06:06.195Z,959.03
2023-05-19T11:07:06.194Z,955.04
2023-05-19T11:08:06.209Z,949.88
2023-05-19T11:09:06.218Z,938.02
2023-05-19T11:10:06.212Z,932.21
2023-05-19T11:11:06.385Z,931.19
2023-05-19T11:12:06.197Z,927.09
2023-05-19T11:13:06.480Z,929.12
2023-05-19T11:14:06.132Z,926.59
2023-05-19T11:15:06.152Z,922.07
2023-05-19T11:16:06.111Z,922.54
2023-05-19T11:17:06.212Z,922.55
2023-05-19T11:18:06.107Z,930.00
2023-05-19T11:19:06.176Z,932.95
2023-05-19T11:20:06.030Z,933.85
2023-05-19T11:21:06.080Z,939.19
2023-05-19T11:22:06.076Z,944.00
2023-05-19T11:23:06.065Z,940.49
2023-05-19T11:24:06.098Z,938.36
2023-05-19T11:25:05.976Z,937.34
2023-05-19T11:26:06.015Z,935.65
2023-05-19T11:27:05.993Z,935.35
2023-05-19T11:28:05.946Z,934.22
2023-05-19T11:29:05.963Z,934.82
2023-05-19T11:30:05.920Z,935.51
2023-05-19T11:31:05.918Z,937.55
2023-05-19T11:32:06.026Z,938.90
2023-05-19T11:33:05.950Z,937.61
2023-05-19T11:34:05.941Z,933.06
2023-05-19T11:35:05.873Z,922.90
2023-05-19T11:36:05.903Z,917.32
2023-05-19T11:37:05.855Z,909.33
2023-05-19T11:38:05.847Z,904.26
2023-05-19T11:39:05.814Z,900.23
2023-05-19T11:40:05.844Z,898.24
2023-05-19T11:41:05.847Z,904.84
2023-05-19T11:42:05.817Z,912.59
2023-05-19T11:43:05.781Z,915.17
2023-05-19T11:44:05.809Z,916.49
2023-05-19T11:45:05.779Z,916.82
2023-05-19T11:46:13.164Z,919.26
2023-05-19T11:47:05.716Z,927.42
2023-05-19T11:48:05.727Z,929.93
2023-05-19T11:49:13.070Z,931.13
2023-05-19T11:50:05.698Z,933.33
2023-05-19T11:51:05.670Z,932.07
2023-05-19T11:52:12.696Z,934.70
2023-05-19T11:53:05.649Z,941.48
2023-05-19T11:54:05.677Z,945.65
2023-05-19T11:55:05.647Z,947.46
2023-05-19T11:56:05.633Z,944.78
2023-05-19T11:57:05.605Z,922.66
2023-05-19T11:58:06.107Z,929.16
2023-05-19T11:59:05.600Z,928.86
2023-05-19T12:00:05.584Z,927.20
2023-05-19T12:01:05.577Z,696.38
2023-05-19T12:02:05.559Z,900.19
2023-05-19T12:03:05.932Z,901.43
2023-05-19T12:04:05.666Z,884.97
2023-05-19T12:05:05.670Z,898.39
2023-05-19T12:06:05.569Z,899.74
2023-05-19T12:07:05.574Z,899.06
2023-05-19T12:08:05.512Z,903.69
2023-05-19T12:09:05.537Z,908.34
2023-05-19T12:10:05.464Z,914.63
2023-05-19T12:11:05.462Z,844.93
2023-05-19T12:12:05.450Z,900.92
2023-05-19T12:13:05.458Z,924.58
2023-05-19T12:14:05.421Z,930.22
2023-05-19T12:15:05.422Z,929.93
2023-05-19T12:16:05.550Z,923.38
2023-05-19T12:17:05.776Z,916.79
2023-05-19T12:18:05.410Z,911.92
2023-05-19T12:19:05.462Z,903.72
2023-05-19T12:20:05.365Z,908.86
2023-05-19T12:21:05.331Z,908.49
2023-05-19T12:22:05.321Z,907.05
2023-05-19T12:23:05.338Z,906.72